Time;durP1;ratioP1;P1;durP2;ratioP2;P2;SDS_P1;SDS_P2;PMS_P1;PMS_P2;Temp;Humidity;BMP_temperature;BMP_pressure;BME280_temperature;BME280_humidity;BME280_pressure;Samples;Min_cycle;Max_cycle;Signal;HPM_P1;HPM_P2
2023/08/21 00:00:34;;;;;;;;;;;15.10;99.90;;;;;;5155589;27;20127;-60
2023/08/21 00:02:59;;;;;;;0.25;0.15;;;15.10;99.90;;;;;;5154694;27;19919;-60
2023/08/21 00:05:25;;;;;;;;;;;15.20;99.90;;;;;;5155019;27;20058;-61
2023/08/21 00:07:51;;;;;;;0.10;0.10;;;15.30;99.90;;;;;;5154629;27;19919;-61
2023/08/21 00:10:16;;;;;;;;;;;15.10;99.90;;;;;;5155366;27;20073;-61
2023/08/21 00:12:42;;;;;;;0.10;0.10;;;14.90;99.90;;;;;;5154829;27;19927;-61
2023/08/21 00:15:09;;;;;;;;;;;15.30;99.90;;;;;;5155775;27;20082;-61
2023/08/21 00:17:35;;;;;;;0.10;0.10;;;15.30;99.90;;;;;;5155219;27;19964;-60
2023/08/21 00:20:01;;;;;;;;;;;15.20;99.90;;;;;;5155360;27;20043;-59
2023/08/21 00:22:27;;;;;;;0.10;0.10;;;14.90;99.90;;;;;;5154845;27;19950;-61
2023/08/21 00:24:53;;;;;;;;;;;15.20;99.90;;;;;;5154895;27;20479;-61
2023/08/21 00:27:18;;;;;;;0.17;0.17;;;15.10;99.90;;;;;;5154511;27;19926;-63
2023/08/21 00:29:44;;;;;;;;;;;15.20;99.90;;;;;;5155145;27;20207;-61
2023/08/21 00:32:11;;;;;;;0.28;0.28;;;14.60;99.90;;;;;;5155032;27;19919;-61
2023/08/21 00:34:37;;;;;;;0.10;0.10;;;15.00;99.90;;;;;;5154724;27;20398;-61
2023/08/21 00:37:03;;;;;;;;;;;14.90;99.90;;;;;;5155099;27;20195;-61
2023/08/21 00:39:28;;;;;;;0.35;0.30;;;14.90;99.90;;;;;;5136176;27;19926;-61
2023/08/21 00:41:54;;;;;;;;;;;15.00;99.90;;;;;;5155307;27;20049;-60
2023/08/21 00:44:20;;;;;;;0.10;0.10;;;15.10;99.90;;;;;;5154283;27;20371;-61
2023/08/21 00:46:46;;;;;;;;;;;14.30;99.90;;;;;;5154954;27;20050;-61
2023/08/21 00:49:12;;;;;;;0.20;0.20;;;14.90;99.90;;;;;;5154520;27;20363;-60
2023/08/21 00:51:38;;;;;;;0.25;0.25;;;14.90;99.90;;;;;;5154644;27;20054;-60
2023/08/21 00:54:03;;;;;;;;;;;14.70;99.90;;;;;;5155154;27;20060;-61
2023/08/21 00:56:29;;;;;;;0.10;0.10;;;14.80;99.90;;;;;;5154437;27;20006;-60
2023/08/21 00:58:55;;;;;;;;;;;14.70;99.90;;;;;;5154793;27;20049;-60
2023/08/21 01:01:25;;;;;;;0.20;0.20;;;14.80;99.90;;;;;;5154079;27;19923;-60
2023/08/21 01:03:51;;;;;;;0.30;0.30;;;14.30;99.90;;;;;;5154216;27;20094;-61
2023/08/21 01:06:18;;;;;;;;;;;14.70;99.90;;;;;;5154528;27;20085;-60
2023/08/21 01:08:52;;;;;;;0.20;0.20;;;14.80;99.90;;;;;;5154183;27;20611;-60
2023/08/21 01:11:31;;;;;;;0.10;0.10;;;14.70;99.90;;;;;;5154034;27;20046;-60
2023/08/21 01:14:12;;;;;;;0.20;0.20;;;14.70;99.90;;;;;;5154070;27;20046;-60
2023/08/21 01:16:40;;;;;;;0.10;0.10;;;14.80;99.90;;;;;;5154010;27;20427;-60
2023/08/21 01:19:15;;;;;;;0.10;0.10;;;14.70;99.90;;;;;;5153908;27;20049;-61
2023/08/21 01:21:41;;;;;;;0.10;0.10;;;14.40;99.90;;;;;;5153821;27;20431;-61
2023/08/21 01:24:06;;;;;;;;;;;14.80;99.90;;;;;;5154169;27;20165;-60
2023/08/21 01:26:32;;;;;;;0.20;0.20;;;14.90;99.90;;;;;;5153704;27;19927;-61
2023/08/21 01:28:58;;;;;;;;;;;14.60;99.90;;;;;;5135423;27;20038;-60
2023/08/21 01:31:36;;;;;;;0.38;0.38;;;14.70;99.90;;;;;;5153671;27;19919;-60
2023/08/21 01:34:06;;;;;;;0.25;0.25;;;14.60;99.90;;;;;;5153741;27;20047;-60
2023/08/21 01:36:32;;;;;;;0.20;0.20;;;14.40;99.90;;;;;;5153365;27;20050;-60
2023/08/21 01:38:58;;;;;;;0.10;0.10;;;14.40;99.90;;;;;;5153428;27;20050;-61
2023/08/21 01:41:24;;;;;;;;;;;14.30;99.90;;;;;;5153797;27;20049;-60
2023/08/21 01:43:50;;;;;;;0.10;0.10;;;14.30;99.90;;;;;;5153529;27;19927;-61
2023/08/21 01:46:16;;;;;;;;;;;14.10;99.90;;;;;;5153843;27;20043;-60
2023/08/21 01:48:41;;;;;;;0.10;0.10;;;14.70;99.90;;;;;;5153276;27;19947;-60
2023/08/21 01:51:07;;;;;;;;;;;14.40;99.90;;;;;;5135390;27;20043;-60
2023/08/21 01:53:33;;;;;;;0.30;0.30;;;14.30;99.90;;;;;;5153307;27;19999;-60
2023/08/21 01:55:59;;;;;;;;;;;14.40;99.90;;;;;;5153617;27;20046;-61
2023/08/21 01:58:24;;;;;;;0.22;0.22;;;14.40;99.90;;;;;;5153264;27;20330;-60
2023/08/21 02:00:50;;;;;;;;;;;14.50;99.90;;;;;;5153353;27;20047;-60
2023/08/21 02:03:16;;;;;;;0.52;0.52;;;14.10;99.90;;;;;;5153225;27;19923;-60
2023/08/21 02:05:41;;;;;;;;;;;14.30;99.90;;;;;;5153699;27;20046;-60
2023/08/21 02:08:12;;;;;;;0.20;0.20;;;14.10;99.90;;;;;;5153237;27;19919;-59
2023/08/21 02:10:46;;;;;;;0.17;0.17;;;14.10;99.90;;;;;;5153223;27;20532;-60
2023/08/21 02:13:11;;;;;;;0.20;0.20;;;14.40;99.90;;;;;;5134607;27;20371;-61
2023/08/21 02:15:38;;;;;;;0.10;0.10;;;13.80;99.90;;;;;;5153698;27;20064;-60
2023/08/21 02:18:04;;;;;;;0.30;0.30;;;13.90;99.90;;;;;;5153387;27;20047;-60
2023/08/21 02:20:30;;;;;;;0.28;0.28;;;14.10;99.90;;;;;;5134572;27;20138;-61
2023/08/21 02:22:55;;;;;;;;;;;14.00;99.90;;;;;;5153378;27;20042;-60
2023/08/21 02:25:21;;;;;;;0.13;0.13;;;13.90;99.90;;;;;;5152976;27;19990;-60
2023/08/21 02:27:47;;;;;;;;;;;13.80;99.90;;;;;;5153113;27;20054;-60
2023/08/21 02:30:13;;;;;;;0.10;0.10;;;14.10;99.90;;;;;;5153000;27;20010;-61
2023/08/21 02:32:40;;;;;;;;;;;13.90;99.90;;;;;;5153296;27;20062;-61
2023/08/21 02:35:06;;;;;;;0.30;0.30;;;14.00;99.90;;;;;;5152804;27;19923;-60
2023/08/21 02:37:32;;;;;;;0.25;0.25;;;13.90;99.90;;;;;;5152914;27;20050;-60
2023/08/21 02:39:59;;;;;;;0.13;0.13;;;13.90;99.90;;;;;;5152851;27;20428;-60
2023/08/21 02:42:25;;;;;;;0.17;0.17;;;13.70;99.90;;;;;;5152808;27;20047;-61
2023/08/21 02:44:50;;;;;;;0.20;0.20;;;13.60;99.90;;;;;;5152841;27;20498;-61
2023/08/21 02:47:16;;;;;;;0.13;0.13;;;13.20;99.90;;;;;;5152822;27;20088;-60
2023/08/21 02:49:42;;;;;;;;;;;13.40;99.90;;;;;;5155847;27;20053;-61
2023/08/21 02:52:08;;;;;;;0.40;0.40;;;13.40;99.90;;;;;;5156750;27;20263;-60
2023/08/21 02:54:33;;;;;;;;;;;13.20;99.90;;;;;;5157075;27;20049;-61
2023/08/21 02:56:59;;;;;;;0.20;0.20;;;13.50;99.90;;;;;;5156630;27;19919;-60
2023/08/21 02:59:24;;;;;;;;;;;12.90;99.90;;;;;;5157050;27;20044;-60
2023/08/21 03:01:50;;;;;;;0.13;0.13;;;13.20;99.90;;;;;;5156087;27;19946;-60
2023/08/21 03:04:16;;;;;;;0.20;0.20;;;13.30;99.90;;;;;;5138018;27;20043;-60
2023/08/21 03:06:42;;;;;;;;;;;13.30;99.90;;;;;;5137390;27;20078;-61
2023/08/21 03:09:07;;;;;;;0.32;0.32;;;13.80;99.90;;;;;;5156360;27;19930;-60
2023/08/21 03:11:33;;;;;;;;;;;13.70;99.90;;;;;;5138260;27;20050;-62
2023/08/21 03:13:58;;;;;;;0.17;0.17;;;13.80;99.90;;;;;;5156274;27;19923;-61
2023/08/21 03:16:24;;;;;;;0.30;0.30;;;13.50;99.90;;;;;;5156570;27;20042;-60
2023/08/21 03:18:55;;;;;;;;;;;13.30;99.90;;;;;;5156968;27;20096;-60
2023/08/21 03:21:23;;;;;;;0.30;0.30;;;13.00;99.90;;;;;;5156218;27;19922;-60
2023/08/21 03:23:57;;;;;;;3.42;0.65;;;13.40;99.90;;;;;;5156251;27;20053;-60
2023/08/21 03:26:24;;;;;;;0.10;0.10;;;13.00;99.90;;;;;;5156109;27;20046;-60
2023/08/21 03:28:49;;;;;;;0.30;0.30;;;13.50;99.90;;;;;;5156378;27;20088;-60
2023/08/21 03:31:15;;;;;;;0.20;0.20;;;13.70;99.90;;;;;;5156047;27;20042;-60
2023/08/21 03:33:41;;;;;;;0.30;0.30;;;13.10;99.90;;;;;;5155991;27;20053;-60
2023/08/21 03:36:06;;;;;;;;;;;13.30;99.90;;;;;;5156354;27;20081;-60
2023/08/21 03:38:32;;;;;;;0.10;0.10;;;13.50;99.90;;;;;;5155892;27;19923;-60
2023/08/21 03:40:59;;;;;;;0.30;0.30;;;13.20;99.90;;;;;;5137615;27;20046;-60
2023/08/21 03:43:24;;;;;;;0.20;0.20;;;13.20;99.90;;;;;;5156059;27;20085;-60
2023/08/21 03:45:50;;;;;;;0.20;0.20;;;13.20;99.90;;;;;;5155852;27;20479;-61
2023/08/21 03:48:15;;;;;;;;;;;13.10;99.90;;;;;;5156435;27;20046;-60
2023/08/21 03:50:41;;;;;;;0.10;0.10;;;13.30;99.90;;;;;;5137688;27;20070;-61
2023/08/21 03:53:07;;;;;;;0.20;0.20;;;13.00;99.90;;;;;;5155831;27;20115;-61
2023/08/21 03:55:33;;;;;;;;;;;13.60;99.90;;;;;;5155985;27;20071;-61
2023/08/21 03:57:59;;;;;;;0.20;0.20;;;13.40;99.90;;;;;;5155471;27;19919;-61
2023/08/21 04:00:24;;;;;;;0.20;0.20;;;13.50;99.90;;;;;;5155373;27;20095;-60
2023/08/21 04:02:50;;;;;;;0.40;0.40;;;13.40;99.90;;;;;;5155294;27;20165;-60
2023/08/21 04:05:16;;;;;;;0.50;0.50;;;13.50;99.90;;;;;;5155426;27;20054;-61
2023/08/21 04:07:41;;;;;;;0.20;0.20;;;13.10;99.90;;;;;;5155474;27;20339;-60
2023/08/21 04:10:07;;;;;;;;;;;13.60;99.90;;;;;;5156042;27;20042;-60
2023/08/21 04:12:33;;;;;;;0.28;0.28;;;13.00;99.90;;;;;;5155265;27;19919;-60
2023/08/21 04:14:58;;;;;;;;;;;13.40;99.90;;;;;;5155530;27;20498;-60
2023/08/21 04:17:24;;;;;;;0.20;0.20;;;13.30;99.90;;;;;;5155149;27;19922;-60
2023/08/21 04:19:50;;;;;;;0.13;0.13;;;13.50;99.90;;;;;;5155029;27;20043;-60
2023/08/21 04:22:16;;;;;;;0.28;0.28;;;13.00;99.90;;;;;;5154973;27;20043;-61
2023/08/21 04:24:42;;;;;;;0.57;0.40;;;13.30;99.90;;;;;;5155203;27;20098;-61
2023/08/21 04:27:08;;;;;;;0.20;0.20;;;13.20;99.90;;;;;;5155313;27;20070;-60
2023/08/21 04:29:35;;;;;;;;;;;13.60;99.90;;;;;;5155371;27;20050;-60
2023/08/21 04:32:00;;;;;;;0.20;0.20;;;13.40;99.90;;;;;;5154702;27;19964;-61
2023/08/21 04:34:26;;;;;;;0.20;0.20;;;13.20;99.90;;;;;;5154490;27;20050;-61
2023/08/21 04:36:52;;;;;;;0.30;0.30;;;13.90;99.90;;;;;;5154692;27;20181;-61
2023/08/21 04:39:18;;;;;;;;;;;13.50;99.90;;;;;;5155087;27;20046;-61
2023/08/21 04:41:43;;;;;;;0.20;0.20;;;14.00;99.90;;;;;;5154502;27;19919;-61
2023/08/21 04:44:09;;;;;;;0.20;0.20;;;13.90;99.90;;;;;;5154427;27;20087;-61
2023/08/21 04:46:35;;;;;;;0.20;0.20;;;13.40;99.90;;;;;;5154762;27;20134;-60
2023/08/21 04:49:00;;;;;;;;;;;13.60;99.90;;;;;;5154871;27;20042;-60
2023/08/21 04:51:26;;;;;;;0.38;0.38;;;13.10;99.90;;;;;;5154741;27;19923;-61
2023/08/21 04:53:52;;;;;;;0.10;0.10;;;13.80;99.90;;;;;;5154395;27;20050;-61
2023/08/21 04:56:18;;;;;;;0.20;0.20;;;13.00;99.90;;;;;;5154334;27;20371;-61
2023/08/21 04:58:43;;;;;;;;;;;14.10;99.90;;;;;;5136111;27;20046;-61
2023/08/21 05:01:09;;;;;;;0.20;0.20;;;14.00;99.90;;;;;;5154154;27;19923;-61
2023/08/21 05:03:34;;;;;;;;;;;13.80;99.90;;;;;;5154333;27;20481;-60
2023/08/21 05:06:00;;;;;;;0.20;0.20;;;13.30;99.90;;;;;;5153981;27;19966;-60
2023/08/21 05:08:26;;;;;;;0.20;0.20;;;13.50;99.90;;;;;;5154398;27;20046;-60
2023/08/21 05:10:55;;;;;;;;;;;13.80;99.90;;;;;;5154186;27;20475;-60
2023/08/21 05:13:21;;;;;;;0.10;0.10;;;13.60;99.90;;;;;;5153823;27;20007;-60
2023/08/21 05:15:52;;;;;;;0.30;0.30;;;13.30;99.90;;;;;;5154237;27;20072;-60
2023/08/21 05:18:18;;;;;;;0.20;0.20;;;13.40;99.90;;;;;;5153854;27;20118;-60
2023/08/21 05:20:43;;;;;;;0.20;0.20;;;13.60;99.90;;;;;;5153836;27;20103;-60
2023/08/21 05:23:09;;;;;;;0.20;0.20;;;13.80;99.90;;;;;;5154103;27;20046;-60
2023/08/21 05:25:35;;;;;;;;;;;13.90;99.90;;;;;;5154213;27;20054;-60
2023/08/21 05:28:01;;;;;;;0.20;0.20;;;13.50;99.90;;;;;;5153719;27;19972;-60
2023/08/21 05:30:26;;;;;;;0.40;0.40;;;13.90;99.90;;;;;;5153738;27;20046;-60
2023/08/21 05:32:52;;;;;;;0.30;0.30;;;13.90;99.90;;;;;;5153600;27;20043;-61
2023/08/21 05:35:18;;;;;;;0.20;0.20;;;14.20;99.90;;;;;;5153621;27;20038;-61
2023/08/21 05:37:45;;;;;;;0.20;0.20;;;13.90;99.90;;;;;;5153922;27;20054;-60
2023/08/21 05:40:12;;;;;;;0.10;0.10;;;14.40;99.90;;;;;;5153555;27;20046;-60
2023/08/21 05:42:38;;;;;;;0.30;0.30;;;14.20;99.90;;;;;;5153412;27;20049;-60
2023/08/21 05:45:05;;;;;;;0.17;0.17;;;14.40;99.90;;;;;;5153418;27;20043;-60
2023/08/21 05:47:31;;;;;;;0.30;0.30;;;13.90;99.90;;;;;;5153291;27;20039;-60
2023/08/21 05:49:56;;;;;;;0.10;0.10;;;14.40;99.90;;;;;;5153482;27;20046;-60
2023/08/21 05:52:22;;;;;;;0.30;0.30;;;14.70;99.90;;;;;;5134968;27;20394;-61
2023/08/21 05:54:49;;;;;;;0.15;0.15;;;14.90;99.90;;;;;;5153414;27;20039;-60
2023/08/21 05:57:15;;;;;;;0.13;0.13;;;15.00;99.90;;;;;;5153304;27;20046;-61
2023/08/21 05:59:45;;;;;;;0.85;0.82;;;14.00;99.90;;;;;;5153403;27;20131;-60
2023/08/21 06:02:11;;;;;;;1.13;0.35;;;14.30;99.90;;;;;;5153173;27;20055;-60
2023/08/21 06:04:41;;;;;;;0.30;0.30;;;15.00;99.90;;;;;;5153470;27;20107;-59
2023/08/21 06:07:08;;;;;;;0.28;0.28;;;14.90;99.90;;;;;;5153325;27;20045;-60
2023/08/21 06:09:33;;;;;;;0.40;0.40;;;15.00;99.90;;;;;;5153229;27;20042;-60
2023/08/21 06:12:03;;;;;;;0.28;0.28;;;14.60;99.90;;;;;;5134584;27;20474;-60
2023/08/21 06:14:29;;;;;;;0.30;0.30;;;15.10;99.90;;;;;;5146437;27;20047;-60
2023/08/21 06:16:59;;;;;;;;;;;15.70;99.90;;;;;;5145810;27;20525;-60
2023/08/21 06:19:24;;;;;;;0.10;0.10;;;15.00;99.90;;;;;;5152515;27;19926;-60
2023/08/21 06:21:50;;;;;;;0.50;0.50;;;15.20;99.90;;;;;;5152795;27;20051;-60
2023/08/21 06:24:16;;;;;;;;;;;15.50;99.90;;;;;;5155011;27;20136;-60
2023/08/21 06:26:42;;;;;;;2.30;0.38;;;16.00;99.90;;;;;;5157005;27;19922;-60
2023/08/21 06:29:07;;;;;;;;;;;16.30;99.90;;;;;;5157384;27;20043;-60
2023/08/21 06:31:33;;;;;;;0.20;0.20;;;15.40;99.90;;;;;;5155885;27;19919;-61
2023/08/21 06:33:58;;;;;;;;;;;16.20;99.90;;;;;;5157367;27;20043;-60
2023/08/21 06:36:24;;;;;;;0.30;0.30;;;15.80;99.90;;;;;;5156676;27;19977;-60
2023/08/21 06:38:50;;;;;;;;;;;15.90;99.90;;;;;;5156570;27;20063;-60
2023/08/21 06:41:15;;;;;;;0.10;0.10;;;16.50;99.90;;;;;;5156634;27;20663;-60
2023/08/21 06:43:41;;;;;;;;;;;16.10;99.90;;;;;;5156889;27;20043;-61
2023/08/21 06:46:07;;;;;;;0.10;0.10;;;16.40;99.90;;;;;;5156104;27;19969;-60
2023/08/21 06:48:37;;;;;;;0.28;0.28;;;17.50;99.90;;;;;;5155704;27;20050;-60
2023/08/21 06:51:03;;;;;;;0.10;0.10;;;16.90;99.90;;;;;;5151877;27;20039;-60
2023/08/21 06:53:28;;;;;;;;;;;17.20;99.90;;;;;;5155445;27;20129;-61
2023/08/21 06:55:54;;;;;;;0.28;0.28;;;16.90;99.90;;;;;;5156380;27;19919;-60
2023/08/21 06:58:20;;;;;;;;;;;17.30;99.90;;;;;;5156815;27;20116;-60
2023/08/21 07:00:46;;;;;;;0.20;0.20;;;17.90;99.90;;;;;;5155909;27;19926;-60
2023/08/21 07:03:12;;;;;;;;;;;18.10;99.90;;;;;;5156751;27;20111;-60
2023/08/21 07:05:37;;;;;;;0.20;0.20;;;18.30;99.90;;;;;;5156401;27;19926;-60
2023/08/21 07:08:03;;;;;;;0.20;0.20;;;17.20;99.90;;;;;;5155653;27;20405;-61
2023/08/21 07:10:29;;;;;;;0.17;0.17;;;17.50;99.90;;;;;;5155596;27;20057;-60
2023/08/21 07:12:55;;;;;;;;;;;18.30;99.90;;;;;;5155860;27;20121;-61
2023/08/21 07:15:21;;;;;;;0.15;0.15;;;18.20;99.90;;;;;;5155610;27;19919;-60
2023/08/21 07:17:47;;;;;;;0.10;0.10;;;18.10;99.90;;;;;;5155505;27;20145;-60
2023/08/21 07:20:12;;;;;;;0.30;0.30;;;19.10;99.90;;;;;;5155922;27;20133;-61
2023/08/21 07:22:38;;;;;;;0.30;0.30;;;18.00;99.90;;;;;;5155295;27;20486;-61
2023/08/21 07:25:04;;;;;;;;;;;18.30;99.90;;;;;;5137020;27;20046;-60
2023/08/21 07:27:31;;;;;;;0.20;0.20;;;18.30;99.90;;;;;;5155380;27;19919;-60
2023/08/21 07:29:57;;;;;;;0.10;0.10;;;19.10;99.90;;;;;;5155620;27;20053;-61
2023/08/21 07:32:22;;;;;;;0.20;0.20;;;18.60;99.90;;;;;;5155029;27;20042;-61
2023/08/21 07:34:52;;;;;;;0.10;0.10;;;18.80;99.90;;;;;;5154697;27;20046;-61
2023/08/21 07:37:18;;;;;;;9.13;0.47;;;18.40;99.90;;;;;;5155154;27;20049;-60
2023/08/21 07:39:44;;;;;;;0.10;0.10;;;19.30;99.90;;;;;;5155093;27;20129;-61
2023/08/21 07:42:12;;;;;;;0.55;0.52;;;19.70;99.90;;;;;;5155063;27;20747;-61
2023/08/21 07:44:39;;;;;;;0.13;0.13;;;19.30;99.90;;;;;;5154815;27;20409;-61
2023/08/21 07:47:05;;;;;;;0.10;0.10;;;19.00;99.90;;;;;;5135708;27;20060;-61
2023/08/21 07:49:32;;;;;;;0.20;0.20;;;19.70;99.90;;;;;;5154972;27;20482;-61
2023/08/21 07:51:57;;;;;;;0.10;0.10;;;19.60;99.90;;;;;;5154761;27;20035;-62
2023/08/21 07:54:24;;;;;;;0.10;0.10;;;19.40;99.90;;;;;;5144221;27;20049;-61
2023/08/21 07:56:50;;;;;;;0.10;0.10;;;20.20;99.90;;;;;;5155492;27;20106;-62
2023/08/21 07:59:16;;;;;;;0.93;0.90;;;20.20;99.90;;;;;;5154878;27;20437;-63
2023/08/21 08:01:42;;;;;;;0.10;0.10;;;20.20;99.90;;;;;;5154582;27;20126;-62
2023/08/21 08:04:08;;;;;;;0.10;0.10;;;20.30;99.90;;;;;;5154914;27;20054;-62
2023/08/21 08:06:35;;;;;;;0.32;0.32;;;20.30;99.90;;;;;;5154897;27;20703;-63
2023/08/21 08:09:00;;;;;;;0.00;0.00;;;20.40;99.90;;;;;;5153748;27;20053;-62
2023/08/21 08:11:26;;;;;;;0.10;0.10;;;20.60;99.90;;;;;;5154552;27;20034;-63
2023/08/21 08:13:51;;;;;;;0.15;0.15;;;20.80;99.90;;;;;;5154667;27;20043;-64
2023/08/21 08:16:17;;;;;;;0.10;0.10;;;20.80;99.90;;;;;;5154064;27;20053;-64
2023/08/21 08:18:43;;;;;;;0.20;0.20;;;21.20;99.90;;;;;;5154269;27;20047;-62
2023/08/21 08:21:10;;;;;;;0.45;0.45;;;21.20;99.90;;;;;;5154362;27;20161;-62
2023/08/21 08:23:36;;;;;;;0.38;0.20;;;21.10;99.90;;;;;;5153708;27;20047;-62
2023/08/21 08:26:02;;;;;;;0.30;0.30;;;20.90;99.90;;;;;;5142339;27;20071;-61
2023/08/21 08:28:28;;;;;;;0.10;0.10;;;21.20;99.90;;;;;;5153326;27;20479;-63
2023/08/21 08:30:54;;;;;;;0.82;0.40;;;21.40;99.90;;;;;;5152259;27;20038;-61
2023/08/21 08:33:20;;;;;;;0.13;0.13;;;21.70;99.90;;;;;;5135243;27;20038;-63
2023/08/21 08:35:45;;;;;;;0.25;0.22;;;21.50;99.90;;;;;;5153061;27;20057;-61
2023/08/21 08:38:11;;;;;;;0.65;0.65;;;21.50;99.90;;;;;;5152483;27;20041;-61
2023/08/21 08:40:44;;;;;;;0.63;0.63;;;22.00;99.90;;;;;;5153829;27;20050;-62
2023/08/21 08:43:11;;;;;;;0.28;0.28;;;21.60;99.90;;;;;;5152937;27;20474;-63
2023/08/21 08:45:38;;;;;;;0.32;0.32;;;22.00;99.90;;;;;;5152467;27;20049;-61
2023/08/21 08:48:05;;;;;;;0.30;0.30;;;21.70;99.90;;;;;;5152666;27;20053;-60
2023/08/21 08:50:32;;;;;;;0.40;0.40;;;21.90;99.90;;;;;;5150288;27;20467;-61
2023/08/21 08:52:58;;;;;;;0.63;0.63;;;22.40;99.90;;;;;;5149201;27;20051;-62
2023/08/21 08:55:25;;;;;;;0.70;0.70;;;22.10;99.90;;;;;;5153008;27;20084;-60
2023/08/21 08:57:52;;;;;;;0.15;0.15;;;22.00;99.90;;;;;;5153115;27;20050;-63
2023/08/21 09:00:18;;;;;;;0.35;0.35;;;22.30;99.90;;;;;;5151762;27;20038;-61
2023/08/21 09:02:43;;;;;;;0.10;0.10;;;22.40;99.90;;;;;;5151280;27;20051;-63
2023/08/21 09:05:10;;;;;;;1.67;0.43;;;22.60;99.90;;;;;;5152839;27;20057;-61
2023/08/21 09:07:36;;;;;;;0.65;0.50;;;22.20;99.90;;;;;;5151534;27;20153;-61
2023/08/21 09:10:02;;;;;;;0.28;0.28;;;22.50;99.90;;;;;;5153155;27;20050;-62
2023/08/21 09:12:32;;;;;;;0.65;0.20;;;23.10;99.90;;;;;;5152739;27;20162;-63
2023/08/21 09:14:59;;;;;;;0.00;0.00;;;22.50;99.90;;;;;;5151739;27;20053;-63
2023/08/21 09:17:26;;;;;;;0.10;0.10;;;23.10;99.90;;;;;;5152731;27;20082;-60
2023/08/21 09:19:51;;;;;;;0.10;0.10;;;23.30;99.90;;;;;;5151296;27;20057;-60
2023/08/21 09:22:18;;;;;;;0.35;0.30;;;23.30;99.90;;;;;;5150183;27;20039;-61
2023/08/21 09:25:07;;;;;;;5.18;1.85;;;25.80;99.90;;;;;;5152395;27;20097;-61
2023/08/21 09:27:34;;;;;;;6.40;0.25;;;23.50;99.90;;;;;;5152161;27;20058;-63
2023/08/21 09:30:02;;;;;;;0.10;0.10;;;23.40;99.90;;;;;;5152014;27;20103;-64
2023/08/21 09:32:27;;;;;;;0.00;0.00;;;23.50;99.90;;;;;;5152697;27;20058;-64
2023/08/21 09:34:53;;;;;;;0.75;0.35;;;23.70;99.90;;;;;;5152382;27;20039;-63
2023/08/21 09:37:19;;;;;;;0.43;0.43;;;23.90;99.90;;;;;;5151928;27;20046;-62
2023/08/21 09:39:46;;;;;;;0.35;0.10;;;23.90;99.90;;;;;;5152104;27;20039;-65
2023/08/21 09:42:12;;;;;;;0.10;0.10;;;23.90;99.90;;;;;;5152524;27;20053;-64
2023/08/21 09:44:43;;;;;;;0.25;0.25;;;24.10;99.90;;;;;;5151840;27;20038;-63
2023/08/21 09:47:12;;;;;;;0.57;0.57;;;23.70;99.90;;;;;;5152347;27;20485;-63
2023/08/21 09:49:39;;;;;;;0.20;0.20;;;23.90;99.90;;;;;;5151364;27;20050;-64
2023/08/21 09:52:10;;;;;;;0.17;0.17;;;24.10;99.90;;;;;;5150007;27;20043;-62
2023/08/21 09:54:38;;;;;;;0.00;0.00;;;23.90;99.90;;;;;;5152167;27;20049;-63
2023/08/21 09:57:04;;;;;;;0.20;0.20;;;23.90;99.90;;;;;;5152417;27;20050;-62
2023/08/21 09:59:31;;;;;;;0.47;0.47;;;23.60;99.90;;;;;;5151508;27;20042;-62
2023/08/21 10:02:04;;;;;;;0.52;0.30;;;24.00;99.90;;;;;;5133614;27;20093;-62
2023/08/21 10:04:34;;;;;;;0.80;0.75;;;24.40;99.90;;;;;;5152952;27;20100;-62
2023/08/21 10:07:03;;;;;;;0.13;0.13;;;24.20;99.90;;;;;;5151577;27;20057;-62
2023/08/21 10:09:30;;;;;;;0.10;0.10;;;24.20;99.90;;;;;;5152928;27;20053;-63
2023/08/21 10:11:57;;;;;;;0.20;0.20;;;24.20;99.90;;;;;;5151480;27;20082;-63
2023/08/21 10:14:26;;;;;;;0.10;0.10;;;24.80;99.90;;;;;;5152980;27;20431;-63
2023/08/21 10:16:53;;;;;;;0.20;0.15;;;24.60;99.90;;;;;;5153155;27;20086;-63
2023/08/21 10:19:19;;;;;;;0.10;0.10;;;24.80;99.90;;;;;;5152569;27;20038;-62
2023/08/21 10:21:49;;;;;;;0.35;0.28;;;24.80;99.90;;;;;;5153081;27;20401;-63
2023/08/21 10:24:33;;;;;;;0.70;0.47;;;24.70;99.90;;;;;;5153117;27;20090;-64
2023/08/21 10:26:59;;;;;;;0.15;0.15;;;24.90;99.90;;;;;;5152451;27;20054;-64
2023/08/21 10:29:26;;;;;;;0.82;0.10;;;24.80;99.90;;;;;;5153083;27;20051;-65
2023/08/21 10:32:12;;;;;;;0.20;0.20;;;25.20;99.90;;;;;;5152819;27;20402;-63
2023/08/21 10:34:38;;;;;;;0.10;0.10;;;24.90;99.90;;;;;;5130438;28;20051;-64
2023/08/21 10:37:12;;;;;;;1.75;0.30;;;25.00;99.90;;;;;;5132088;28;20046;-62
2023/08/21 10:39:39;;;;;;;0.00;0.00;;;25.40;99.90;;;;;;5132301;28;20047;-63
2023/08/21 10:42:14;;;;;;;0.80;0.63;;;25.30;99.90;;;;;;5132189;28;20112;-63
2023/08/21 10:44:45;;;;;;;0.22;0.22;;;25.60;99.90;;;;;;5131831;28;20051;-64
2023/08/21 10:47:15;;;;;;;0.20;0.20;;;25.90;99.90;;;;;;5132092;28;20091;-65
2023/08/21 10:49:41;;;;;;;0.40;0.40;;;25.50;99.90;;;;;;5131559;28;20051;-64
2023/08/21 10:52:09;;;;;;;3.03;0.65;;;25.60;99.90;;;;;;5132170;28;20505;-63
2023/08/21 10:54:48;;;;;;;0.40;0.30;;;25.50;99.90;;;;;;5131454;28;20095;-62
2023/08/21 10:57:14;;;;;;;0.20;0.20;;;25.50;99.90;;;;;;5131322;28;20486;-63
2023/08/21 10:59:59;;;;;;;1.65;0.50;;;25.00;99.90;;;;;;5130471;27;20058;-67
2023/08/21 11:02:29;;;;;;;0.20;0.20;;;25.60;99.90;;;;;;5148334;27;20047;-64
2023/08/21 11:04:55;;;;;;;0.75;0.75;;;25.50;99.90;;;;;;5152729;27;20046;-62
2023/08/21 11:07:21;;;;;;;0.10;0.10;;;25.40;99.90;;;;;;5152891;27;20043;-62
2023/08/21 11:09:50;;;;;;;1.75;1.40;;;25.20;99.90;;;;;;5152683;27;20053;-63
2023/08/21 11:12:21;;;;;;;0.38;0.38;;;25.30;99.90;;;;;;5156179;27;20583;-62
2023/08/21 11:14:47;;;;;;;0.75;0.40;;;25.10;99.90;;;;;;5155912;27;20043;-65
2023/08/21 11:17:13;;;;;;;0.82;0.82;;;24.80;99.90;;;;;;5155364;27;20050;-62
2023/08/21 11:19:40;;;;;;;0.10;0.10;;;24.70;99.90;;;;;;5156172;27;20050;-63
2023/08/21 11:22:06;;;;;;;0.30;0.30;;;25.10;99.90;;;;;;5155862;27;20397;-64
2023/08/21 11:24:38;;;;;;;0.13;0.13;;;25.40;99.90;;;;;;5155487;27;20047;-65
2023/08/21 11:27:04;;;;;;;0.20;0.20;;;25.20;99.90;;;;;;5154974;27;20049;-65
2023/08/21 11:29:37;;;;;;;0.10;0.10;;;26.10;99.90;;;;;;5154802;27;20053;-63
2023/08/21 11:32:03;;;;;;;0.20;0.20;;;26.10;99.90;;;;;;5135573;27;20402;-64
2023/08/21 11:34:32;;;;;;;0.20;0.20;;;26.20;99.90;;;;;;5154313;27;20051;-63
2023/08/21 11:36:58;;;;;;;0.57;0.57;;;25.90;99.90;;;;;;5136352;27;20050;-63
2023/08/21 11:39:29;;;;;;;0.10;0.10;;;25.80;99.90;;;;;;5154193;27;20047;-62
2023/08/21 11:41:56;;;;;;;0.22;0.10;;;25.50;99.90;;;;;;5154730;27;20050;-65
2023/08/21 11:44:22;;;;;;;0.30;0.30;;;25.80;99.90;;;;;;5152189;27;20545;-63
2023/08/21 11:46:51;;;;;;;0.15;0.10;;;24.20;99.90;;;;;;5154341;27;20039;-63
2023/08/21 11:49:18;;;;;;;0.10;0.10;;;25.80;99.90;;;;;;5154832;27;20062;-63
2023/08/21 11:51:46;;;;;;;0.28;0.28;;;25.00;99.90;;;;;;5154687;27;20046;-64
2023/08/21 11:54:11;;;;;;;0.05;0.05;;;24.70;99.90;;;;;;5154499;27;20493;-64
2023/08/21 11:56:38;;;;;;;0.22;0.22;;;24.50;99.90;;;;;;5154322;27;20103;-63
2023/08/21 11:59:05;;;;;;;3.03;1.98;;;23.90;99.90;;;;;;5154839;27;20049;-63
2023/08/21 12:01:34;;;;;;;0.20;0.20;;;23.80;99.90;;;;;;5154689;27;20076;-63
2023/08/21 12:04:00;;;;;;;0.10;0.10;;;24.40;99.90;;;;;;5154619;27;20057;-63
2023/08/21 12:06:26;;;;;;;0.30;0.30;;;24.80;99.90;;;;;;5145070;27;20042;-62
2023/08/21 12:08:52;;;;;;;0.10;0.10;;;25.30;99.90;;;;;;5153793;27;20082;-63
2023/08/21 12:11:18;;;;;;;0.25;0.25;;;25.30;99.90;;;;;;5154819;27;20093;-62
2023/08/21 12:13:44;;;;;;;0.00;0.00;;;25.40;99.90;;;;;;5136427;27;20420;-62
2023/08/21 12:16:09;;;;;;;0.13;0.13;;;25.70;99.90;;;;;;5154950;27;20046;-61
2023/08/21 12:18:35;;;;;;;0.10;0.10;;;26.10;99.90;;;;;;5154918;27;20494;-62
2023/08/21 12:21:01;;;;;;;0.00;0.00;;;26.50;99.90;;;;;;5153226;27;20065;-63
2023/08/21 12:23:26;;;;;;;0.22;0.22;;;26.70;99.90;;;;;;5154622;27;20047;-62
2023/08/21 12:25:52;;;;;;;2.92;1.02;;;26.90;99.90;;;;;;5154293;27;20159;-61
2023/08/21 12:28:18;;;;;;;0.10;0.10;;;26.10;99.90;;;;;;5154633;27;20047;-62
2023/08/21 12:30:43;;;;;;;0.45;0.10;;;26.10;99.90;;;;;;5155037;27;20058;-64
2023/08/21 12:33:09;;;;;;;0.40;0.20;;;25.80;99.90;;;;;;5154549;27;20045;-63
2023/08/21 12:35:35;;;;;;;4.90;0.30;;;25.00;99.90;;;;;;5154369;27;20409;-63
2023/08/21 12:38:05;;;;;;;0.00;0.00;;;24.60;99.90;;;;;;5153969;27;20064;-63
2023/08/21 12:40:31;;;;;;;0.77;0.77;;;24.70;99.90;;;;;;5154522;27;20050;-61
2023/08/21 12:42:57;;;;;;;0.00;0.00;;;24.30;99.90;;;;;;5154139;27;20722;-61
2023/08/21 12:45:23;;;;;;;0.10;0.10;;;23.90;99.90;;;;;;5153914;27;20066;-62
2023/08/21 12:47:48;;;;;;;0.80;0.20;;;24.20;99.90;;;;;;5153560;27;20072;-62
2023/08/21 12:50:14;;;;;;;0.10;0.10;;;24.00;99.90;;;;;;5153706;27;20046;-62
2023/08/21 12:52:41;;;;;;;0.00;0.00;;;24.00;99.90;;;;;;5153855;27;20049;-62
2023/08/21 12:55:07;;;;;;;0.10;0.10;;;24.60;99.90;;;;;;5153026;27;20550;-61
2023/08/21 12:57:33;;;;;;;0.20;0.20;;;25.00;99.90;;;;;;5153447;27;20468;-62